KROX

Roseau Municipal / Rudy Billberg Field Airport

Roseau, Minnesota, USA
METAR KROX 232315Z AUTO 19004KT 7SM -SN OVC014 M07/M09 A3011 RMK AO2
Observed Flight Rules
Jan-23 @ 23:15 UTC (14 minutes ago) Marginal Visual Flight Rules
Wind Visibility Clouds Conditions
190° at 4 knots 7 miles
  • Overcast at 1,400' AGL
  • Light Snow
Temperatures Readings
Current -7°C / 19°F
Dewpoint -9°C / 16°F
Humidity 86%
Altimeter 30.11" Hg
Pressure 1020 hPa
Elevation 323
METAR KROX 232315Z AUTO 19004KT 7SM -SN OVC014 M07/M09 A3011 RMK AO2
Observed Flight Rules
Jan-23 @ 23:15 UTC
(14 minutes ago)
MVFR
Wind Visibility
190° at 4 knots 7 miles
Clouds
  • Overcast at 1,400' AGL
Conditions
  • Light Snow
Temperature Dewpoint
-7°C / 19°F -9°C / 16°F
Humidity Altimeter Pressure
86% 30.11" Hg 1020 hPa